createdAt,value
2018-07-30T00:01:32.280Z,16.57
2018-07-30T00:04:01.256Z,16.83
2018-07-30T00:06:30.281Z,15.83
2018-07-30T00:08:59.259Z,18.80
2018-07-30T00:11:28.219Z,24.10
2018-07-30T00:13:57.248Z,23.10
2018-07-30T00:16:26.274Z,25.97
2018-07-30T00:18:55.251Z,23.90
2018-07-30T00:21:24.322Z,23.23
2018-07-30T00:23:53.345Z,18.57
2018-07-30T00:26:22.359Z,18.07
2018-07-30T00:28:51.367Z,18.13
2018-07-30T00:31:20.649Z,17.03
2018-07-30T00:33:49.664Z,16.70
2018-07-30T00:36:18.631Z,17.53
2018-07-30T00:38:47.782Z,17.77
2018-07-30T00:41:16.752Z,18.33
2018-07-30T00:43:45.736Z,17.27
2018-07-30T00:46:14.700Z,17.30
2018-07-30T00:48:43.682Z,18.87
2018-07-30T00:51:12.705Z,18.60
2018-07-30T00:53:41.714Z,19.77
2018-07-30T00:56:10.667Z,19.43
2018-07-30T00:58:39.700Z,18.90
2018-07-30T01:01:08.720Z,19.00
2018-07-30T01:03:37.813Z,20.97
2018-07-30T01:06:06.900Z,19.43
2018-07-30T01:08:35.883Z,20.20
2018-07-30T01:11:05.274Z,20.00
2018-07-30T01:13:34.308Z,21.63
2018-07-30T01:16:03.324Z,20.23
2018-07-30T01:18:32.384Z,20.00
2018-07-30T01:21:01.408Z,18.47
2018-07-30T01:23:30.376Z,20.20
2018-07-30T01:26:03.458Z,19.23
2018-07-30T01:28:32.420Z,20.33
2018-07-30T01:31:01.446Z,20.23
2018-07-30T01:33:30.476Z,19.50
2018-07-30T01:35:59.530Z,20.70
2018-07-30T01:38:28.556Z,20.63
2018-07-30T01:40:57.543Z,20.63
2018-07-30T01:43:26.551Z,21.87
2018-07-30T01:45:55.596Z,24.47
2018-07-30T01:48:24.552Z,23.80
2018-07-30T01:50:53.908Z,29.27
2018-07-30T01:53:22.891Z,26.90
2018-07-30T01:55:51.929Z,26.63
2018-07-30T01:58:20.948Z,23.70
2018-07-30T02:00:49.976Z,23.83
2018-07-30T02:03:18.964Z,23.20
2018-07-30T02:05:47.931Z,23.50
2018-07-30T02:08:16.904Z,25.67
2018-07-30T02:10:45.864Z,23.70
2018-07-30T02:13:14.894Z,23.00
2018-07-30T02:15:44.041Z,23.60
2018-07-30T02:18:13.246Z,22.83
2018-07-30T02:20:42.333Z,23.53
2018-07-30T02:23:11.324Z,23.00
2018-07-30T02:25:40.327Z,23.70
2018-07-30T02:28:09.377Z,23.80
2018-07-30T02:30:38.412Z,23.03
2018-07-30T02:33:07.461Z,22.67
2018-07-30T02:35:36.457Z,22.20
2018-07-30T02:38:05.617Z,22.90
2018-07-30T02:40:34.594Z,23.07
2018-07-30T02:43:03.679Z,21.67
2018-07-30T02:45:32.705Z,22.90
2018-07-30T02:48:01.757Z,21.97
2018-07-30T02:50:30.729Z,21.40
2018-07-30T02:52:59.781Z,20.20
2018-07-30T02:55:28.869Z,19.83
2018-07-30T02:57:57.852Z,17.80
2018-07-30T03:00:26.860Z,18.83
2018-07-30T03:02:55.837Z,19.80
2018-07-30T03:05:24.796Z,18.33
2018-07-30T03:07:53.885Z,19.27
2018-07-30T03:10:22.868Z,19.33
2018-07-30T03:12:51.948Z,18.60
2018-07-30T03:15:21.000Z,18.20
2018-07-30T03:17:50.045Z,16.53
2018-07-30T03:20:19.056Z,16.20
2018-07-30T03:22:48.010Z,17.07
2018-07-30T03:25:17.109Z,21.60
2018-07-30T03:27:46.072Z,25.77
2018-07-30T03:30:15.164Z,27.20
2018-07-30T03:32:44.124Z,28.03
2018-07-30T03:35:13.083Z,26.67
2018-07-30T03:37:42.120Z,30.93
2018-07-30T03:40:11.203Z,28.10
2018-07-30T03:42:40.200Z,25.40
2018-07-30T03:45:09.960Z,27.13
2018-07-30T03:47:39.033Z,25.03
2018-07-30T03:50:08.212Z,28.27
2018-07-30T03:52:37.338Z,30.43
2018-07-30T03:55:06.498Z,31.57
2018-07-30T03:57:35.585Z,31.40
2018-07-30T04:00:05.904Z,29.93
2018-07-30T04:02:34.841Z,30.20
2018-07-30T04:05:03.949Z,30.90
2018-07-30T04:07:32.926Z,31.33
2018-07-30T04:10:02.096Z,27.30
2018-07-30T04:12:31.091Z,29.50
2018-07-30T04:15:00.169Z,29.23
2018-07-30T04:17:29.329Z,27.63
2018-07-30T04:19:58.409Z,25.57
2018-07-30T04:22:27.506Z,23.43
2018-07-30T04:24:56.542Z,24.23
2018-07-30T04:27:25.587Z,25.77
2018-07-30T04:29:54.679Z,22.03
2018-07-30T04:32:23.663Z,23.50
2018-07-30T04:34:52.736Z,20.70
2018-07-30T04:37:22.812Z,23.03
2018-07-30T04:39:51.820Z,21.03
2018-07-30T04:42:20.839Z,19.47
2018-07-30T04:44:49.997Z,19.63
2018-07-30T04:47:18.963Z,19.10
2018-07-30T04:49:48.041Z,18.27
2018-07-30T04:52:17.132Z,19.70
2018-07-30T04:54:46.128Z,18.97
2018-07-30T04:57:15.310Z,18.00
2018-07-30T04:59:44.303Z,16.30
2018-07-30T05:02:13.296Z,16.43
2018-07-30T05:04:42.317Z,16.93
2018-07-30T05:07:11.453Z,14.33
2018-07-30T05:09:42.247Z,13.70
2018-07-30T05:12:11.320Z,13.60
2018-07-30T05:14:40.363Z,12.77
2018-07-30T05:17:09.606Z,12.80
2018-07-30T05:19:38.711Z,12.87
2018-07-30T05:22:07.752Z,12.60
2018-07-30T05:24:36.746Z,12.00
2018-07-30T05:27:05.760Z,11.20
2018-07-30T05:29:34.885Z,12.63
2018-07-30T05:32:03.985Z,11.57
2018-07-30T05:34:32.998Z,12.00
2018-07-30T05:37:01.984Z,10.67
2018-07-30T05:39:30.997Z,11.80
2018-07-30T05:42:00.034Z,12.33
2018-07-30T05:44:29.010Z,10.93
2018-07-30T05:46:58.044Z,11.30
2018-07-30T05:49:27.061Z,11.10
2018-07-30T05:51:56.057Z,10.90
2018-07-30T05:54:25.036Z,10.53
2018-07-30T05:56:53.981Z,10.93
2018-07-30T05:59:23.009Z,11.17
2018-07-30T06:01:52.016Z,13.00
2018-07-30T06:04:21.073Z,12.43
2018-07-30T06:06:50.152Z,12.03
2018-07-30T06:09:19.107Z,12.20
2018-07-30T06:11:48.092Z,12.87
2018-07-30T06:14:17.156Z,16.03
2018-07-30T06:16:46.181Z,13.80
2018-07-30T06:19:15.228Z,13.70
2018-07-30T06:21:44.276Z,16.30
2018-07-30T06:24:13.360Z,14.37
2018-07-30T06:26:42.497Z,14.07
2018-07-30T06:29:11.467Z,16.27
2018-07-30T06:31:40.436Z,16.20
2018-07-30T06:34:09.462Z,15.80
2018-07-30T06:36:38.473Z,14.93
2018-07-30T06:39:09.661Z,14.70
2018-07-30T06:41:38.832Z,16.93
2018-07-30T06:44:07.858Z,16.53
2018-07-30T06:46:37.119Z,18.43
2018-07-30T06:49:06.778Z,17.40
2018-07-30T06:51:35.800Z,17.80
2018-07-30T06:54:04.789Z,17.10
2018-07-30T06:56:33.938Z,18.67
2018-07-30T06:59:02.969Z,18.70
2018-07-30T07:01:32.017Z,18.87
2018-07-30T07:04:01.018Z,19.20
2018-07-30T07:06:30.078Z,19.07
2018-07-30T07:08:59.109Z,19.07
2018-07-30T07:11:28.145Z,17.60
2018-07-30T07:13:57.172Z,20.20
2018-07-30T07:16:26.244Z,20.80
2018-07-30T07:18:55.524Z,17.30
2018-07-30T07:21:24.619Z,19.97
2018-07-30T07:23:53.528Z,18.90
2018-07-30T07:26:22.545Z,18.77
2018-07-30T07:28:51.548Z,18.00
2018-07-30T07:31:20.576Z,18.50
2018-07-30T07:33:49.710Z,17.70
2018-07-30T07:36:18.893Z,20.03
2018-07-30T07:38:47.936Z,17.93
2018-07-30T07:41:16.978Z,18.17
2018-07-30T07:43:46.021Z,19.00
2018-07-30T07:46:15.127Z,20.73
2018-07-30T07:48:44.158Z,21.07
2018-07-30T07:51:13.263Z,20.50
2018-07-30T07:53:42.212Z,18.47
2018-07-30T07:56:11.331Z,21.03
2018-07-30T07:58:40.333Z,19.20
2018-07-30T08:01:09.318Z,20.77
2018-07-30T08:03:38.445Z,20.80
2018-07-30T08:06:07.466Z,20.37
2018-07-30T08:08:36.529Z,18.00
2018-07-30T08:11:05.635Z,17.77
2018-07-30T08:13:34.728Z,18.43
2018-07-30T08:16:03.677Z,17.37
2018-07-30T08:18:32.671Z,18.67
2018-07-30T08:21:01.956Z,17.53
2018-07-30T08:23:30.947Z,17.23
2018-07-30T08:25:59.926Z,16.80
2018-07-30T08:28:28.878Z,16.73
2018-07-30T08:30:57.957Z,16.57
2018-07-30T08:33:26.954Z,17.17
2018-07-30T08:35:55.920Z,17.23
2018-07-30T08:38:24.997Z,17.10
2018-07-30T08:40:53.995Z,16.53
2018-07-30T08:43:22.960Z,15.60
2018-07-30T08:45:51.956Z,17.93
2018-07-30T08:48:20.950Z,16.50
2018-07-30T08:50:49.988Z,15.20
2018-07-30T08:53:19.007Z,16.67
2018-07-30T08:55:48.000Z,16.67
2018-07-30T08:58:16.961Z,15.50
2018-07-30T09:00:45.948Z,14.83
2018-07-30T09:03:14.957Z,14.70
2018-07-30T09:05:44.001Z,13.93
2018-07-30T09:08:13.005Z,17.00
2018-07-30T09:10:42.098Z,15.13
2018-07-30T09:13:11.120Z,14.67
2018-07-30T09:15:40.141Z,13.70
2018-07-30T09:18:09.219Z,13.17
2018-07-30T09:20:38.212Z,13.03
2018-07-30T09:23:07.325Z,12.10
2018-07-30T09:25:36.375Z,12.87
2018-07-30T09:28:05.636Z,11.90
2018-07-30T09:30:34.593Z,14.97
2018-07-30T09:33:03.781Z,14.60
2018-07-30T09:35:32.733Z,13.87
2018-07-30T09:38:01.765Z,14.10
2018-07-30T09:40:30.788Z,13.27
2018-07-30T09:42:59.756Z,13.20
2018-07-30T09:45:28.776Z,12.50
2018-07-30T09:47:57.852Z,11.40
2018-07-30T09:50:26.975Z,9.57
2018-07-30T09:52:55.972Z,10.33
2018-07-30T09:55:24.997Z,10.23
2018-07-30T09:57:53.968Z,9.10
2018-07-30T10:00:28.130Z,9.23
2018-07-30T10:02:57.245Z,9.17
2018-07-30T10:05:26.243Z,8.70
2018-07-30T10:07:55.273Z,9.13
2018-07-30T10:10:24.293Z,9.07
2018-07-30T10:12:53.371Z,9.57
2018-07-30T10:15:22.373Z,8.73
2018-07-30T10:17:51.517Z,8.90
2018-07-30T10:20:20.464Z,7.70
2018-07-30T10:22:49.471Z,11.60
2018-07-30T10:25:18.448Z,6.83
2018-07-30T10:27:47.404Z,6.30
2018-07-30T10:30:16.433Z,6.30
2018-07-30T10:32:45.441Z,5.40
2018-07-30T10:35:14.471Z,5.67
2018-07-30T10:37:43.470Z,6.17
2018-07-30T10:40:12.474Z,5.10
2018-07-30T10:42:41.512Z,6.00
2018-07-30T10:45:10.487Z,6.10
2018-07-30T10:47:39.533Z,6.80
2018-07-30T10:50:08.545Z,6.90
2018-07-30T10:52:37.631Z,9.63
2018-07-30T10:55:06.724Z,10.07
2018-07-30T10:57:35.777Z,9.60
2018-07-30T11:00:04.791Z,8.67
2018-07-30T11:02:33.748Z,9.53
2018-07-30T11:05:02.785Z,8.30
2018-07-30T11:07:31.829Z,8.27
2018-07-30T11:10:00.883Z,7.77
2018-07-30T11:12:29.901Z,8.17
2018-07-30T11:14:58.943Z,6.40
2018-07-30T11:17:27.891Z,6.00
2018-07-30T11:19:56.970Z,8.97
2018-07-30T11:22:26.028Z,8.50
2018-07-30T11:24:55.025Z,9.90
2018-07-30T11:27:24.064Z,7.10
2018-07-30T11:29:53.075Z,7.27
2018-07-30T11:32:22.141Z,6.90
2018-07-30T11:34:51.157Z,6.97
2018-07-30T11:37:20.269Z,6.60
2018-07-30T11:39:49.262Z,6.77
2018-07-30T11:42:18.231Z,8.07
2018-07-30T11:44:47.200Z,7.67
2018-07-30T11:47:16.176Z,7.23
2018-07-30T11:49:45.179Z,7.10
2018-07-30T11:52:14.275Z,9.70
2018-07-30T11:54:43.347Z,7.37
2018-07-30T11:57:12.358Z,6.80
2018-07-30T11:59:41.374Z,6.07
2018-07-30T12:02:10.422Z,6.97
2018-07-30T12:04:39.384Z,6.80
2018-07-30T12:07:08.352Z,6.40
2018-07-30T12:09:37.320Z,5.70
2018-07-30T12:12:06.416Z,5.83
2018-07-30T12:14:35.375Z,6.27
2018-07-30T12:17:04.445Z,6.20
2018-07-30T12:19:33.549Z,5.93
2018-07-30T12:22:02.602Z,6.73
2018-07-30T12:24:31.638Z,5.20
2018-07-30T12:27:00.646Z,5.53
2018-07-30T12:29:29.787Z,5.20
2018-07-30T12:31:58.809Z,5.10
2018-07-30T12:34:27.756Z,5.77
2018-07-30T12:36:56.858Z,7.67
2018-07-30T12:39:25.908Z,6.53
2018-07-30T12:41:54.910Z,6.63
2018-07-30T12:44:24.001Z,6.40
2018-07-30T12:46:52.996Z,5.73
2018-07-30T12:49:22.019Z,7.47
2018-07-30T12:51:51.090Z,7.00
2018-07-30T12:54:20.066Z,6.77
2018-07-30T12:56:49.012Z,5.63
2018-07-30T12:59:18.051Z,6.00
2018-07-30T13:01:47.186Z,6.50
2018-07-30T13:04:16.237Z,6.57
2018-07-30T13:06:45.459Z,6.70
2018-07-30T13:09:14.518Z,6.00
2018-07-30T13:11:43.500Z,6.13
2018-07-30T13:14:12.567Z,6.47
2018-07-30T13:16:41.589Z,6.67
2018-07-30T13:19:10.713Z,6.70
2018-07-30T13:21:39.732Z,5.80
2018-07-30T13:24:08.873Z,6.50
2018-07-30T13:26:37.948Z,5.90
2018-07-30T13:29:06.834Z,6.03
2018-07-30T13:31:35.797Z,5.73
2018-07-30T13:34:04.745Z,6.20
2018-07-30T13:36:33.785Z,5.40
2018-07-30T13:39:02.848Z,6.43
2018-07-30T13:41:31.913Z,6.03
2018-07-30T13:44:00.868Z,5.50
2018-07-30T13:46:29.990Z,5.50
2018-07-30T13:48:59.054Z,5.93
2018-07-30T13:51:28.025Z,6.30
2018-07-30T13:53:56.996Z,5.80
2018-07-30T13:56:26.017Z,6.40
2018-07-30T13:58:55.046Z,6.47
2018-07-30T14:01:24.017Z,7.10
2018-07-30T14:03:53.193Z,6.80
2018-07-30T14:06:22.342Z,6.53
2018-07-30T14:08:51.379Z,9.57
2018-07-30T14:11:20.475Z,7.27
2018-07-30T14:13:49.501Z,6.63
2018-07-30T14:16:18.681Z,6.30
2018-07-30T14:18:47.699Z,7.60
2018-07-30T14:21:16.666Z,26.93
2018-07-30T14:23:45.785Z,18.77
2018-07-30T14:26:14.885Z,13.97
2018-07-30T14:28:43.962Z,8.03
2018-07-30T14:31:13.097Z,8.00
2018-07-30T14:33:42.152Z,9.33
2018-07-30T14:36:11.113Z,8.37
2018-07-30T14:38:40.069Z,8.70
2018-07-30T14:41:09.096Z,7.90
2018-07-30T14:43:38.133Z,8.37
2018-07-30T14:46:07.210Z,7.80
2018-07-30T14:48:36.246Z,7.80
2018-07-30T14:51:05.324Z,7.67
2018-07-30T14:53:34.466Z,8.20
2018-07-30T14:56:03.541Z,9.17
2018-07-30T14:58:32.525Z,7.33
2018-07-30T15:01:01.897Z,7.80
2018-07-30T15:03:30.868Z,7.63
2018-07-30T15:05:59.807Z,7.50
2018-07-30T15:08:28.833Z,7.07
2018-07-30T15:10:57.804Z,8.20
2018-07-30T15:13:26.827Z,8.93
2018-07-30T15:15:55.941Z,7.67
2018-07-30T15:18:24.927Z,6.53
2018-07-30T15:20:53.992Z,6.27
2018-07-30T15:23:23.024Z,6.23
2018-07-30T15:25:52.117Z,5.40
2018-07-30T15:28:21.049Z,5.23
2018-07-30T15:30:50.148Z,5.40
2018-07-30T15:33:19.213Z,6.50
2018-07-30T15:35:48.224Z,5.77
2018-07-30T15:38:17.248Z,6.47
2018-07-30T15:40:46.265Z,5.60
2018-07-30T15:43:15.363Z,7.03
2018-07-30T15:45:44.412Z,6.00
2018-07-30T15:48:13.424Z,6.43
2018-07-30T15:50:42.464Z,5.67
2018-07-30T15:53:11.476Z,6.80
2018-07-30T15:55:40.557Z,5.30
2018-07-30T15:58:09.501Z,6.07
2018-07-30T16:00:38.502Z,5.83
2018-07-30T16:03:07.557Z,6.20
2018-07-30T16:05:36.596Z,6.70
2018-07-30T16:08:05.662Z,6.10
2018-07-30T16:10:34.677Z,7.37
2018-07-30T16:13:03.927Z,6.40
2018-07-30T16:15:32.997Z,7.27
2018-07-30T16:18:01.972Z,8.10
2018-07-30T16:20:30.955Z,6.90
2018-07-30T16:22:59.949Z,6.43
2018-07-30T16:25:28.960Z,6.50
2018-07-30T16:27:57.972Z,6.30
2018-07-30T16:30:27.113Z,6.43
2018-07-30T16:32:56.127Z,6.00
2018-07-30T16:35:25.176Z,6.40
2018-07-30T16:37:54.253Z,8.17
2018-07-30T16:40:23.458Z,6.77
2018-07-30T16:42:52.508Z,6.57
2018-07-30T16:45:21.495Z,6.90
2018-07-30T16:47:50.507Z,6.43
2018-07-30T16:50:19.588Z,6.30
2018-07-30T16:52:48.689Z,6.67
2018-07-30T16:55:17.702Z,6.07
2018-07-30T16:57:46.709Z,6.80
2018-07-30T17:00:15.841Z,6.27
2018-07-30T17:02:44.939Z,7.20
2018-07-30T17:05:14.072Z,7.57
2018-07-30T17:07:43.065Z,7.23
2018-07-30T17:10:12.147Z,7.03
2018-07-30T17:12:41.096Z,7.30
2018-07-30T17:15:10.034Z,9.10
2018-07-30T17:17:39.130Z,8.37
2018-07-30T17:20:11.398Z,8.23
2018-07-30T17:22:40.912Z,9.60
2018-07-30T17:25:10.089Z,8.57
2018-07-30T17:27:39.137Z,8.20
2018-07-30T17:30:09.266Z,9.77
2018-07-30T17:32:38.361Z,10.20
2018-07-30T17:35:07.850Z,10.43
2018-07-30T17:37:36.908Z,9.40
2018-07-30T17:40:07.365Z,11.73
2018-07-30T17:42:36.471Z,11.40
2018-07-30T17:45:06.281Z,9.90
2018-07-30T17:47:35.252Z,9.40
2018-07-30T17:50:04.398Z,9.00
2018-07-30T17:52:33.390Z,9.53
2018-07-30T17:55:02.372Z,10.57
2018-07-30T17:57:31.460Z,11.40
2018-07-30T18:00:00.481Z,9.53
2018-07-30T18:02:29.532Z,10.50
2018-07-30T18:04:58.930Z,10.40
2018-07-30T18:07:27.875Z,9.70
2018-07-30T18:09:56.937Z,10.30
2018-07-30T18:12:25.992Z,10.17
2018-07-30T18:14:55.047Z,11.73
2018-07-30T18:17:24.037Z,10.20
2018-07-30T18:19:53.096Z,11.33
2018-07-30T18:22:22.124Z,10.83
2018-07-30T18:24:51.244Z,11.13
2018-07-30T18:27:20.197Z,11.00
2018-07-30T18:29:49.226Z,10.47
2018-07-30T18:32:18.221Z,11.20
2018-07-30T18:34:47.231Z,12.23
2018-07-30T18:37:16.211Z,10.13
2018-07-30T18:39:45.325Z,8.67
2018-07-30T18:42:14.360Z,8.80
2018-07-30T18:44:43.325Z,8.63
2018-07-30T18:47:12.316Z,9.10
2018-07-30T18:49:41.577Z,8.70
2018-07-30T18:52:10.535Z,8.50
2018-07-30T18:54:39.556Z,9.63
2018-07-30T18:57:08.531Z,9.90
2018-07-30T18:59:37.699Z,9.03
2018-07-30T19:02:06.767Z,8.53
2018-07-30T19:04:35.755Z,8.60
2018-07-30T19:07:04.735Z,10.47
2018-07-30T19:09:33.702Z,8.57
2018-07-30T19:12:02.801Z,10.83
2018-07-30T19:14:31.786Z,10.70
2018-07-30T19:17:00.757Z,11.53
2018-07-30T19:19:29.809Z,10.03
2018-07-30T19:21:58.985Z,11.17
2018-07-30T19:24:28.042Z,9.93
2018-07-30T19:26:57.061Z,12.60
2018-07-30T19:29:26.180Z,11.20
2018-07-30T19:31:55.205Z,10.67
2018-07-30T19:34:24.196Z,12.40
2018-07-30T19:36:53.241Z,13.53
2018-07-30T19:39:22.288Z,12.60
2018-07-30T19:41:51.345Z,13.53
2018-07-30T19:44:20.412Z,13.97
2018-07-30T19:46:49.459Z,14.10
2018-07-30T19:49:18.452Z,16.30
2018-07-30T19:51:47.491Z,25.30
2018-07-30T19:54:16.592Z,21.80
2018-07-30T19:56:45.588Z,17.10
2018-07-30T19:59:14.672Z,19.40
2018-07-30T20:01:43.659Z,17.70
2018-07-30T20:04:12.754Z,17.43
2018-07-30T20:06:41.744Z,16.57
2018-07-30T20:09:12.366Z,16.10
2018-07-30T20:11:41.352Z,16.73
2018-07-30T20:14:10.386Z,15.67
2018-07-30T20:16:39.469Z,15.17
2018-07-30T20:19:08.597Z,13.90
2018-07-30T20:21:37.632Z,12.83
2018-07-30T20:24:06.647Z,12.10
2018-07-30T20:26:35.673Z,12.20
2018-07-30T20:29:04.671Z,9.93
2018-07-30T20:31:33.641Z,9.33
2018-07-30T20:34:02.745Z,10.07
2018-07-30T20:36:31.765Z,9.23
2018-07-30T20:39:00.744Z,9.67
2018-07-30T20:41:29.793Z,9.40
2018-07-30T20:43:58.833Z,8.87
2018-07-30T20:46:27.937Z,9.63
2018-07-30T20:48:57.034Z,8.23
2018-07-30T20:51:26.189Z,8.20
2018-07-30T20:53:55.195Z,9.27
2018-07-30T20:56:24.160Z,7.53
2018-07-30T20:58:53.148Z,8.20
2018-07-30T21:01:22.173Z,8.73
2018-07-30T21:03:51.260Z,7.87
2018-07-30T21:06:20.288Z,7.33
2018-07-30T21:08:49.390Z,7.10
2018-07-30T21:11:18.355Z,7.17
2018-07-30T21:13:47.348Z,8.37
2018-07-30T21:16:16.346Z,8.37
2018-07-30T21:18:45.333Z,9.70
2018-07-30T21:21:14.356Z,7.83
2018-07-30T21:23:43.367Z,8.37
2018-07-30T21:26:12.465Z,7.53
2018-07-30T21:28:41.481Z,9.20
2018-07-30T21:31:10.460Z,8.67
2018-07-30T21:33:39.497Z,8.37
2018-07-30T21:36:08.470Z,7.87
2018-07-30T21:38:37.460Z,9.17
2018-07-30T21:41:06.620Z,9.50
2018-07-30T21:43:35.965Z,9.00
2018-07-30T21:46:05.356Z,9.43
2018-07-30T21:48:34.397Z,8.90
2018-07-30T21:51:03.393Z,10.60
2018-07-30T21:53:32.421Z,10.23
2018-07-30T21:56:01.451Z,10.53
2018-07-30T21:58:30.431Z,9.87
2018-07-30T22:00:59.524Z,8.83
2018-07-30T22:03:28.590Z,8.93
2018-07-30T22:06:00.381Z,10.00
2018-07-30T22:08:29.742Z,9.50
2018-07-30T22:10:58.713Z,7.97
2018-07-30T22:13:27.688Z,8.10
2018-07-30T22:15:56.744Z,9.20
2018-07-30T22:18:25.810Z,8.47
2018-07-30T22:20:54.886Z,8.43
2018-07-30T22:23:23.914Z,9.93
2018-07-30T22:25:52.971Z,9.00
2018-07-30T22:28:21.993Z,8.73
2018-07-30T22:30:51.079Z,8.87
2018-07-30T22:33:20.106Z,9.30
2018-07-30T22:35:49.147Z,9.10
2018-07-30T22:38:18.176Z,10.00
2018-07-30T22:40:47.201Z,10.07
2018-07-30T22:43:16.181Z,11.40
2018-07-30T22:45:45.204Z,9.70
2018-07-30T22:48:14.259Z,10.00
2018-07-30T22:50:43.225Z,11.03
2018-07-30T22:53:12.360Z,10.17
2018-07-30T22:55:41.387Z,9.30
2018-07-30T22:58:10.452Z,9.60
2018-07-30T23:00:39.564Z,9.17
2018-07-30T23:03:08.496Z,9.10
2018-07-30T23:05:37.517Z,9.43
2018-07-30T23:08:06.480Z,9.60
2018-07-30T23:10:35.665Z,9.00
2018-07-30T23:13:04.680Z,9.87
2018-07-30T23:15:33.705Z,8.10
2018-07-30T23:18:02.749Z,9.73
2018-07-30T23:20:31.720Z,10.17
2018-07-30T23:23:00.770Z,9.50
2018-07-30T23:25:29.800Z,8.70
2018-07-30T23:27:58.827Z,9.33
2018-07-30T23:30:27.837Z,8.90
2018-07-30T23:32:56.926Z,10.60
2018-07-30T23:35:25.977Z,9.23
2018-07-30T23:37:54.946Z,10.27
2018-07-30T23:40:24.093Z,9.90
2018-07-30T23:42:53.121Z,9.57
2018-07-30T23:45:22.100Z,10.17
2018-07-30T23:47:51.065Z,9.40
2018-07-30T23:50:20.101Z,9.77
2018-07-30T23:52:49.067Z,9.87
2018-07-30T23:55:18.090Z,9.17
2018-07-30T23:57:47.104Z,10.80
